sensor_id;sensor_type;location;lat;lon;timestamp;pressure;altitude;pressure_sealevel;temperature;humidity
46303;BME280;32029;51.358;5.628;2023-04-01T00:01:10;98952.06;;;12.17;100.00
46303;BME280;32029;51.358;5.628;2023-04-01T00:03:40;98956.75;;;12.16;100.00
46303;BME280;32029;51.358;5.628;2023-04-01T00:06:07;98950.22;;;12.06;100.00
46303;BME280;32029;51.358;5.628;2023-04-01T00:08:34;98953.31;;;12.09;100.00
46303;BME280;32029;51.358;5.628;2023-04-01T00:11:00;98946.13;;;12.08;100.00
46303;BME280;32029;51.358;5.628;2023-04-01T00:13:28;98957.47;;;12.12;100.00
46303;BME280;32029;51.358;5.628;2023-04-01T00:15:56;98953.91;;;12.11;100.00
46303;BME280;32029;51.358;5.628;2023-04-01T00:18:22;98954.97;;;12.10;100.00
46303;BME280;32029;51.358;5.628;2023-04-01T00:20:51;98964.06;;;12.11;100.00
46303;BME280;32029;51.358;5.628;2023-04-01T00:23:19;98960.13;;;12.07;100.00
46303;BME280;32029;51.358;5.628;2023-04-01T00:25:46;98961.56;;;12.09;100.00
46303;BME280;32029;51.358;5.628;2023-04-01T00:28:16;98950.22;;;12.06;100.00
46303;BME280;32029;51.358;5.628;2023-04-01T00:30:43;98959.41;;;12.11;100.00
46303;BME280;32029;51.358;5.628;2023-04-01T00:33:10;98961.41;;;12.16;100.00
46303;BME280;32029;51.358;5.628;2023-04-01T00:35:37;98975.06;;;12.11;100.00
46303;BME280;32029;51.358;5.628;2023-04-01T00:38:04;98962.88;;;12.07;100.00
46303;BME280;32029;51.358;5.628;2023-04-01T00:40:36;98965.03;;;12.05;100.00
46303;BME280;32029;51.358;5.628;2023-04-01T00:43:03;98955.59;;;12.00;100.00
46303;BME280;32029;51.358;5.628;2023-04-01T00:45:38;98963.72;;;12.07;100.00
46303;BME280;32029;51.358;5.628;2023-04-01T00:48:12;98969.81;;;12.09;100.00
46303;BME280;32029;51.358;5.628;2023-04-01T00:50:44;98968.03;;;12.03;100.00
46303;BME280;32029;51.358;5.628;2023-04-01T00:53:13;98977.22;;;11.97;100.00
46303;BME280;32029;51.358;5.628;2023-04-01T00:55:44;98978.78;;;11.93;100.00
46303;BME280;32029;51.358;5.628;2023-04-01T00:58:15;98959.78;;;11.68;100.00
46303;BME280;32029;51.358;5.628;2023-04-01T01:00:44;98984.91;;;11.83;100.00
46303;BME280;32029;51.358;5.628;2023-04-01T01:03:11;98984.50;;;11.80;100.00
46303;BME280;32029;51.358;5.628;2023-04-01T01:09:02;98993.22;;;11.76;100.00
46303;BME280;32029;51.358;5.628;2023-04-01T01:11:42;98985.94;;;11.70;100.00
46303;BME280;32029;51.358;5.628;2023-04-01T01:14:43;98988.81;;;11.75;100.00
46303;BME280;32029;51.358;5.628;2023-04-01T01:17:25;98997.53;;;11.72;100.00
46303;BME280;32029;51.358;5.628;2023-04-01T01:22:54;99003.38;;;11.64;100.00
46303;BME280;32029;51.358;5.628;2023-04-01T01:28:49;98996.81;;;11.65;100.00
46303;BME280;32029;51.358;5.628;2023-04-01T01:32:03;99001.56;;;11.70;100.00
46303;BME280;32029;51.358;5.628;2023-04-01T01:35:03;98998.13;;;11.74;100.00
46303;BME280;32029;51.358;5.628;2023-04-01T01:37:30;99000.38;;;11.77;100.00
46303;BME280;32029;51.358;5.628;2023-04-01T01:40:04;99004.31;;;11.82;100.00
46303;BME280;32029;51.358;5.628;2023-04-01T01:42:36;99008.41;;;11.79;100.00
46303;BME280;32029;51.358;5.628;2023-04-01T01:45:06;99007.78;;;11.77;100.00
46303;BME280;32029;51.358;5.628;2023-04-01T01:47:35;98984.03;;;11.59;100.00
46303;BME280;32029;51.358;5.628;2023-04-01T01:50:03;98979.00;;;11.56;100.00
46303;BME280;32029;51.358;5.628;2023-04-01T01:52:31;98997.06;;;11.64;100.00
46303;BME280;32029;51.358;5.628;2023-04-01T01:54:58;99014.00;;;11.72;100.00
46303;BME280;32029;51.358;5.628;2023-04-01T01:57:29;99014.13;;;11.77;100.00
46303;BME280;32029;51.358;5.628;2023-04-01T02:00:09;99014.13;;;11.77;100.00
46303;BME280;32029;51.358;5.628;2023-04-01T02:02:44;99008.63;;;11.77;100.00
46303;BME280;32029;51.358;5.628;2023-04-01T02:05:16;99008.75;;;11.83;100.00
46303;BME280;32029;51.358;5.628;2023-04-01T02:07:48;98997.63;;;11.77;100.00
46303;BME280;32029;51.358;5.628;2023-04-01T02:10:16;99016.53;;;11.86;100.00
46303;BME280;32029;51.358;5.628;2023-04-01T02:12:46;99017.47;;;11.80;100.00
46303;BME280;32029;51.358;5.628;2023-04-01T02:15:15;99012.94;;;11.73;100.00
46303;BME280;32029;51.358;5.628;2023-04-01T02:17:44;99021.69;;;11.82;100.00
46303;BME280;32029;51.358;5.628;2023-04-01T02:20:18;99009.63;;;11.83;100.00
46303;BME280;32029;51.358;5.628;2023-04-01T02:22:50;99016.91;;;11.89;100.00
46303;BME280;32029;51.358;5.628;2023-04-01T02:25:20;99001.47;;;11.76;100.00
46303;BME280;32029;51.358;5.628;2023-04-01T02:27:49;98991.66;;;11.81;100.00
46303;BME280;32029;51.358;5.628;2023-04-01T02:30:17;99021.44;;;11.95;100.00
46303;BME280;32029;51.358;5.628;2023-04-01T02:32:44;99026.94;;;11.95;100.00
46303;BME280;32029;51.358;5.628;2023-04-01T02:35:14;99039.59;;;11.96;100.00
46303;BME280;32029;51.358;5.628;2023-04-01T02:37:42;99037.69;;;11.97;100.00
46303;BME280;32029;51.358;5.628;2023-04-01T02:40:14;99007.06;;;11.82;100.00
46303;BME280;32029;51.358;5.628;2023-04-01T02:42:41;99022.75;;;11.93;100.00
46303;BME280;32029;51.358;5.628;2023-04-01T02:45:08;99040.44;;;11.97;100.00
46303;BME280;32029;51.358;5.628;2023-04-01T02:47:35;99033.75;;;11.93;100.00
46303;BME280;32029;51.358;5.628;2023-04-01T02:50:02;99028.13;;;11.88;100.00
46303;BME280;32029;51.358;5.628;2023-04-01T02:52:29;99037.09;;;11.83;100.00
46303;BME280;32029;51.358;5.628;2023-04-01T02:54:57;99042.97;;;11.87;100.00
46303;BME280;32029;51.358;5.628;2023-04-01T02:57:24;99045.72;;;11.87;100.00
46303;BME280;32029;51.358;5.628;2023-04-01T02:59:51;99044.88;;;11.86;100.00
46303;BME280;32029;51.358;5.628;2023-04-01T03:02:18;99049.03;;;11.89;100.00
46303;BME280;32029;51.358;5.628;2023-04-01T03:04:44;99052.03;;;11.87;100.00
46303;BME280;32029;51.358;5.628;2023-04-01T03:07:12;99043.44;;;11.84;100.00
46303;BME280;32029;51.358;5.628;2023-04-01T03:09:39;99049.03;;;11.89;100.00
46303;BME280;32029;51.358;5.628;2023-04-01T03:12:06;99054.53;;;11.89;100.00
46303;BME280;32029;51.358;5.628;2023-04-01T03:14:32;99052.50;;;11.84;100.00
46303;BME280;32029;51.358;5.628;2023-04-01T03:16:59;99057.41;;;11.82;100.00
46303;BME280;32029;51.358;5.628;2023-04-01T03:19:26;99055.47;;;11.83;100.00
46303;BME280;32029;51.358;5.628;2023-04-01T03:21:53;99065.28;;;11.78;100.00
46303;BME280;32029;51.358;5.628;2023-04-01T03:24:20;99068.84;;;11.79;100.00
46303;BME280;32029;51.358;5.628;2023-04-01T03:26:46;99064.66;;;11.76;100.00
46303;BME280;32029;51.358;5.628;2023-04-01T03:29:13;99071.25;;;11.75;100.00
46303;BME280;32029;51.358;5.628;2023-04-01T03:31:42;99072.06;;;11.76;100.00
46303;BME280;32029;51.358;5.628;2023-04-01T03:34:09;99068.84;;;11.79;100.00
46303;BME280;32029;51.358;5.628;2023-04-01T03:36:36;99061.56;;;11.73;100.00
46303;BME280;32029;51.358;5.628;2023-04-01T03:39:03;99066.09;;;11.79;100.00
46303;BME280;32029;51.358;5.628;2023-04-01T03:41:30;99072.91;;;11.76;100.00
46303;BME280;32029;51.358;5.628;2023-04-01T03:43:57;99076.75;;;11.75;100.00
46303;BME280;32029;51.358;5.628;2023-04-01T03:46:23;99070.50;;;11.68;100.00
46303;BME280;32029;51.358;5.628;2023-04-01T03:48:50;99082.94;;;11.71;100.00
46303;BME280;32029;51.358;5.628;2023-04-01T03:51:17;99088.19;;;11.72;100.00
46303;BME280;32029;51.358;5.628;2023-04-01T03:53:43;99087.38;;;11.72;100.00
46303;BME280;32029;51.358;5.628;2023-04-01T03:56:10;99088.19;;;11.72;100.00
46303;BME280;32029;51.358;5.628;2023-04-01T03:58:37;99076.00;;;11.68;100.00
46303;BME280;32029;51.358;5.628;2023-04-01T04:01:16;99085.44;;;11.61;100.00
46303;BME280;32029;51.358;5.628;2023-04-01T04:03:43;99089.97;;;11.55;100.00
46303;BME280;32029;51.358;5.628;2023-04-01T04:06:11;99088.44;;;11.59;100.00
46303;BME280;32029;51.358;5.628;2023-04-01T04:08:38;99095.59;;;11.60;100.00
46303;BME280;32029;51.358;5.628;2023-04-01T04:11:05;99090.09;;;11.60;100.00
46303;BME280;32029;51.358;5.628;2023-04-01T04:13:32;99094.50;;;11.61;100.00
46303;BME280;32029;51.358;5.628;2023-04-01T04:15:58;99096.41;;;11.61;100.00
46303;BME280;32029;51.358;5.628;2023-04-01T04:18:25;99094.75;;;11.60;100.00
46303;BME280;32029;51.358;5.628;2023-04-01T04:20:52;99078.84;;;11.50;100.00
46303;BME280;32029;51.358;5.628;2023-04-01T04:23:19;99103.56;;;11.62;100.00
46303;BME280;32029;51.358;5.628;2023-04-01T04:28:21;99112.06;;;11.60;100.00
46303;BME280;32029;51.358;5.628;2023-04-01T04:30:48;99109.31;;;11.60;100.00
46303;BME280;32029;51.358;5.628;2023-04-01T04:33:15;99113.28;;;11.64;100.00
46303;BME280;32029;51.358;5.628;2023-04-01T04:35:41;99116.13;;;11.69;100.00
46303;BME280;32029;51.358;5.628;2023-04-01T04:38:08;99110.19;;;11.72;100.00
46303;BME280;32029;51.358;5.628;2023-04-01T04:40:39;99113.63;;;11.68;100.00
46303;BME280;32029;51.358;5.628;2023-04-01T04:43:06;99111.59;;;11.63;100.00
46303;BME280;32029;51.358;5.628;2023-04-01T04:45:33;99120.31;;;11.60;100.00
46303;BME280;32029;51.358;5.628;2023-04-01T04:47:59;99123.88;;;11.61;100.00
46303;BME280;32029;51.358;5.628;2023-04-01T04:50:26;99126.75;;;11.66;100.00
46303;BME280;32029;51.358;5.628;2023-04-01T04:52:53;99125.94;;;11.65;100.00
46303;BME280;32029;51.358;5.628;2023-04-01T04:55:20;99094.94;;;11.46;100.00
46303;BME280;32029;51.358;5.628;2023-04-01T04:57:47;99132.03;;;11.67;100.00
46303;BME280;32029;51.358;5.628;2023-04-01T05:00:14;99138.72;;;11.60;100.00
46303;BME280;32029;51.358;5.628;2023-04-01T05:02:40;99151.59;;;11.59;100.00
46303;BME280;32029;51.358;5.628;2023-04-01T05:05:07;99137.88;;;11.59;100.00
46303;BME280;32029;51.358;5.628;2023-04-01T05:07:34;99149.91;;;11.58;100.00
46303;BME280;32029;51.358;5.628;2023-04-01T05:10:01;99147.16;;;11.58;100.00
46303;BME280;32029;51.358;5.628;2023-04-01T05:12:28;99152.91;;;11.57;100.00
46303;BME280;32029;51.358;5.628;2023-04-01T05:14:54;99158.03;;;11.53;100.00
46303;BME280;32029;51.358;5.628;2023-04-01T05:17:21;99148.91;;;11.41;100.00
46303;BME280;32029;51.358;5.628;2023-04-01T05:19:47;99165.53;;;11.46;100.00
46303;BME280;32029;51.358;5.628;2023-04-01T05:22:14;99161.94;;;11.45;100.00
46303;BME280;32029;51.358;5.628;2023-04-01T05:24:41;99162.19;;;11.44;100.00
46303;BME280;32029;51.358;5.628;2023-04-01T05:27:07;99165.06;;;11.49;100.00
46303;BME280;32029;51.358;5.628;2023-04-01T05:29:34;99173.91;;;11.51;100.00
46303;BME280;32029;51.358;5.628;2023-04-01T05:32:01;99171.38;;;11.49;100.00
46303;BME280;32029;51.358;5.628;2023-04-01T05:34:28;99181.53;;;11.49;100.00
46303;BME280;32029;51.358;5.628;2023-04-01T05:36:54;99183.19;;;11.50;100.00
46303;BME280;32029;51.358;5.628;2023-04-01T05:39:21;99183.19;;;11.50;100.00
46303;BME280;32029;51.358;5.628;2023-04-01T05:41:48;99190.41;;;11.51;100.00
46303;BME280;32029;51.358;5.628;2023-04-01T05:44:14;99186.56;;;11.52;100.00
46303;BME280;32029;51.358;5.628;2023-04-01T05:46:41;99195.56;;;11.59;100.00
46303;BME280;32029;51.358;5.628;2023-04-01T05:49:08;99197.69;;;11.57;100.00
46303;BME280;32029;51.358;5.628;2023-04-01T05:51:35;99186.66;;;11.45;100.00
46303;BME280;32029;51.358;5.628;2023-04-01T05:54:01;99199.34;;;11.58;100.00
46303;BME280;32029;51.358;5.628;2023-04-01T05:56:30;99202.81;;;11.53;100.00
46303;BME280;32029;51.358;5.628;2023-04-01T05:58:56;99198.03;;;11.49;100.00
46303;BME280;32029;51.358;5.628;2023-04-01T06:01:23;99204.44;;;11.43;100.00
46303;BME280;32029;51.358;5.628;2023-04-01T06:03:50;99208.88;;;11.44;100.00
46303;BME280;32029;51.358;5.628;2023-04-01T06:06:24;99215.41;;;11.43;100.00
46303;BME280;32029;51.358;5.628;2023-04-01T06:08:52;99215.53;;;11.36;100.00
46303;BME280;32029;51.358;5.628;2023-04-01T06:14:16;99233.91;;;11.36;100.00
46303;BME280;32029;51.358;5.628;2023-04-01T06:17:16;99231.16;;;11.36;100.00
46303;BME280;32029;51.358;5.628;2023-04-01T06:20:12;99238.31;;;11.37;100.00
46303;BME280;32029;51.358;5.628;2023-04-01T06:22:54;99236.50;;;11.31;100.00
46303;BME280;32029;51.358;5.628;2023-04-01T06:28:24;99242.81;;;11.31;100.00
46303;BME280;32029;51.358;5.628;2023-04-01T06:31:24;99253.34;;;11.34;100.00
46303;BME280;32029;51.358;5.628;2023-04-01T06:34:13;99258.38;;;11.37;100.00
46303;BME280;32029;51.358;5.628;2023-04-01T06:45:57;99272.13;;;11.37;100.00
46303;BME280;32029;51.358;5.628;2023-04-01T06:54:04;99283.25;;;11.42;100.00
46303;BME280;32029;51.358;5.628;2023-04-01T06:56:34;99283.78;;;11.51;100.00
46303;BME280;32029;51.358;5.628;2023-04-01T06:59:16;99289.88;;;11.53;100.00
46303;BME280;32029;51.358;5.628;2023-04-01T07:01:53;99285.59;;;11.57;100.00
46303;BME280;32029;51.358;5.628;2023-04-01T07:04:27;99287.50;;;11.57;100.00
46303;BME280;32029;51.358;5.628;2023-04-01T07:06:59;99276.47;;;11.45;100.00
46303;BME280;32029;51.358;5.628;2023-04-01T07:09:32;99285.97;;;11.61;100.00
46303;BME280;32029;51.358;5.628;2023-04-01T07:12:51;99305.59;;;11.64;100.00
46303;BME280;32029;51.358;5.628;2023-04-01T07:14:53;99311.91;;;11.65;100.00
46303;BME280;32029;51.358;5.628;2023-04-01T07:17:23;99300.22;;;11.69;100.00
46303;BME280;32029;51.358;5.628;2023-04-01T07:19:57;99318.94;;;11.79;100.00
46303;BME280;32029;51.358;5.628;2023-04-01T07:22:45;99313.97;;;11.88;100.00
46303;BME280;32029;51.358;5.628;2023-04-01T07:27:43;99326.94;;;11.99;100.00
46303;BME280;32029;51.358;5.628;2023-04-01T07:30:22;99329.09;;;12.09;100.00
46303;BME280;32029;51.358;5.628;2023-04-01T07:35:30;99338.94;;;12.16;100.00
46303;BME280;32029;51.358;5.628;2023-04-01T07:38:07;99340.47;;;12.12;100.00
46303;BME280;32029;51.358;5.628;2023-04-01T07:41:22;99348.72;;;12.12;100.00
46303;BME280;32029;51.358;5.628;2023-04-01T07:43:55;99349.72;;;12.18;100.00
46303;BME280;32029;51.358;5.628;2023-04-01T07:49:53;99354.84;;;12.14;100.00
46303;BME280;32029;51.358;5.628;2023-04-01T07:52:52;99355.31;;;12.11;100.00
46303;BME280;32029;51.358;5.628;2023-04-01T07:55:30;99371.81;;;12.11;100.00
46303;BME280;32029;51.358;5.628;2023-04-01T07:58:10;99356.88;;;12.19;100.00
46303;BME280;32029;51.358;5.628;2023-04-01T08:01:01;99331.13;;;12.01;100.00
46303;BME280;32029;51.358;5.628;2023-04-01T08:09:55;99366.50;;;12.40;100.00
46303;BME280;32029;51.358;5.628;2023-04-01T08:12:43;99383.31;;;12.50;100.00
46303;BME280;32029;51.358;5.628;2023-04-01T08:15:23;99382.59;;;12.55;100.00
46303;BME280;32029;51.358;5.628;2023-04-01T08:20:56;99392.69;;;12.61;100.00
46303;BME280;32029;51.358;5.628;2023-04-01T08:23:33;99392.56;;;12.67;100.00
46303;BME280;32029;51.358;5.628;2023-04-01T08:26:08;99398.94;;;12.80;100.00
46303;BME280;32029;51.358;5.628;2023-04-01T08:28:42;99397.88;;;12.81;100.00
46303;BME280;32029;51.358;5.628;2023-04-01T08:31:20;99414.84;;;12.78;100.00
46303;BME280;32029;51.358;5.628;2023-04-01T08:33:53;99407.53;;;12.83;100.00
46303;BME280;32029;51.358;5.628;2023-04-01T08:36:29;99414.75;;;12.84;100.00
46303;BME280;32029;51.358;5.628;2023-04-01T08:39:04;99416.06;;;12.93;100.00
46303;BME280;32029;51.358;5.628;2023-04-01T08:44:34;99428.66;;;13.01;100.00
46303;BME280;32029;51.358;5.628;2023-04-01T08:50:15;99427.22;;;13.22;100.00
46303;BME280;32029;51.358;5.628;2023-04-01T08:56:06;99442.84;;;13.40;100.00
46303;BME280;32029;51.358;5.628;2023-04-01T08:59:57;99440.00;;;13.58;100.00
46303;BME280;32029;51.358;5.628;2023-04-01T09:02:22;99448.22;;;13.82;100.00
46303;BME280;32029;51.358;5.628;2023-04-01T09:05:26;99442.81;;;13.98;100.00
46303;BME280;32029;51.358;5.628;2023-04-01T09:08:20;99454.41;;;14.12;99.02
46303;BME280;32029;51.358;5.628;2023-04-01T09:10:56;99449.25;;;14.16;97.59
46303;BME280;32029;51.358;5.628;2023-04-01T09:13:48;99463.41;;;14.08;97.38
46303;BME280;32029;51.358;5.628;2023-04-01T09:19:15;99471.91;;;14.18;98.19
46303;BME280;32029;51.358;5.628;2023-04-01T09:24:40;99456.50;;;14.34;96.86
46303;BME280;32029;51.358;5.628;2023-04-01T09:35:46;99479.00;;;14.42;95.64
46303;BME280;32029;51.358;5.628;2023-04-01T09:38:29;99486.94;;;14.39;94.36
46303;BME280;32029;51.358;5.628;2023-04-01T09:41:14;99470.94;;;14.24;93.57
46303;BME280;32029;51.358;5.628;2023-04-01T09:44:23;99490.09;;;14.31;94.68
46303;BME280;32029;51.358;5.628;2023-04-01T09:54:46;99503.38;;;14.45;95.14
46303;BME280;32029;51.358;5.628;2023-04-01T09:58:12;99510.00;;;14.33;95.05
46303;BME280;32029;51.358;5.628;2023-04-01T10:00:49;99522.16;;;14.32;96.58
46303;BME280;32029;51.358;5.628;2023-04-01T10:42:34;99548.44;;;13.87;96.76
46303;BME280;32029;51.358;5.628;2023-04-01T10:48:22;99554.31;;;13.91;96.12
46303;BME280;32029;51.358;5.628;2023-04-01T11:15:46;99567.63;;;13.94;95.95
46303;BME280;32029;51.358;5.628;2023-04-01T11:30:39;99593.84;;;13.61;98.75
46303;BME280;32029;51.358;5.628;2023-04-01T11:32:59;99608.59;;;13.67;98.64
46303;BME280;32029;51.358;5.628;2023-04-01T11:44:10;99613.63;;;13.58;98.66
46303;BME280;32029;51.358;5.628;2023-04-01T11:55:46;99619.00;;;13.65;97.18
46303;BME280;32029;51.358;5.628;2023-04-01T12:07:21;99645.59;;;13.59;98.11
46303;BME280;32029;51.358;5.628;2023-04-01T12:12:32;99652.97;;;13.77;97.69
46303;BME280;32029;51.358;5.628;2023-04-01T12:15:33;99653.47;;;13.86;97.26
46303;BME280;32029;51.358;5.628;2023-04-01T12:18:23;99654.66;;;13.90;96.59
46303;BME280;32029;51.358;5.628;2023-04-01T12:21:02;99651.66;;;13.91;96.04
46303;BME280;32029;51.358;5.628;2023-04-01T12:29:08;99667.75;;;14.06;97.97
46303;BME280;32029;51.358;5.628;2023-04-01T12:31:50;99672.69;;;14.16;96.99
46303;BME280;32029;51.358;5.628;2023-04-01T12:34:46;99653.84;;;14.01;97.85
46303;BME280;32029;51.358;5.628;2023-04-01T12:40:31;99676.88;;;14.07;100.00
46303;BME280;32029;51.358;5.628;2023-04-01T12:49:20;99686.78;;;13.96;100.00
46303;BME280;32029;51.358;5.628;2023-04-01T12:57:31;99700.38;;;13.97;100.00
46303;BME280;32029;51.358;5.628;2023-04-01T13:00:10;99695.56;;;13.93;100.00
46303;BME280;32029;51.358;5.628;2023-04-01T13:03:07;99700.69;;;13.78;100.00
46303;BME280;32029;51.358;5.628;2023-04-01T13:06:10;99699.81;;;13.65;100.00
46303;BME280;32029;51.358;5.628;2023-04-01T13:19:59;99720.41;;;13.63;100.00
46303;BME280;32029;51.358;5.628;2023-04-01T13:25:54;99727.13;;;13.67;100.00
46303;BME280;32029;51.358;5.628;2023-04-01T13:29:04;99721.69;;;13.60;100.00
46303;BME280;32029;51.358;5.628;2023-04-01T13:31:55;99723.88;;;13.58;100.00
46303;BME280;32029;51.358;5.628;2023-04-01T13:40:03;99735.66;;;13.47;100.00
46303;BME280;32029;51.358;5.628;2023-04-01T13:42:47;99744.06;;;13.52;100.00
46303;BME280;32029;51.358;5.628;2023-04-01T13:49:13;99744.69;;;13.54;100.00
46303;BME280;32029;51.358;5.628;2023-04-01T13:51:40;99750.66;;;13.51;100.00
46303;BME280;32029;51.358;5.628;2023-04-01T14:00:15;99753.19;;;13.53;100.00
46303;BME280;32029;51.358;5.628;2023-04-01T14:03:52;99760.75;;;13.57;100.00
46303;BME280;32029;51.358;5.628;2023-04-01T14:06:06;99757.16;;;13.57;100.00
46303;BME280;32029;51.358;5.628;2023-04-01T14:08:54;99766.97;;;13.53;100.00
46303;BME280;32029;51.358;5.628;2023-04-01T14:11:52;99764.59;;;13.56;100.00
46303;BME280;32029;51.358;5.628;2023-04-01T14:34:35;99783.88;;;13.19;100.00
46303;BME280;32029;51.358;5.628;2023-04-01T14:37:36;99785.63;;;13.14;100.00
46303;BME280;32029;51.358;5.628;2023-04-01T14:40:26;99790.16;;;13.08;100.00
46303;BME280;32029;51.358;5.628;2023-04-01T14:45:49;99793.41;;;13.23;100.00
46303;BME280;32029;51.358;5.628;2023-04-01T14:48:49;99797.19;;;13.22;100.00
46303;BME280;32029;51.358;5.628;2023-04-01T14:51:23;99800.59;;;13.24;100.00
46303;BME280;32029;51.358;5.628;2023-04-01T14:54:05;99804.81;;;13.27;100.00
46303;BME280;32029;51.358;5.628;2023-04-01T14:57:24;99801.50;;;13.18;100.00
46303;BME280;32029;51.358;5.628;2023-04-01T15:02:28;99815.84;;;13.20;100.00
46303;BME280;32029;51.358;5.628;2023-04-01T15:08:18;99829.97;;;13.31;100.00
46303;BME280;32029;51.358;5.628;2023-04-01T15:11:21;99823.41;;;13.32;100.00
46303;BME280;32029;51.358;5.628;2023-04-01T15:16:45;99832.50;;;13.32;100.00
46303;BME280;32029;51.358;5.628;2023-04-01T15:19:31;99833.56;;;13.31;100.00
46303;BME280;32029;51.358;5.628;2023-04-01T15:33:16;99854.41;;;13.20;100.00
46303;BME280;32029;51.358;5.628;2023-04-01T15:36:08;99854.88;;;13.17;100.00
46303;BME280;32029;51.358;5.628;2023-04-01T15:38:50;99855.31;;;13.14;100.00
46303;BME280;32029;51.358;5.628;2023-04-01T15:41:35;99860.06;;;13.07;100.00
46303;BME280;32029;51.358;5.628;2023-04-01T15:44:40;99866.09;;;12.97;100.00
46303;BME280;32029;51.358;5.628;2023-04-01T15:47:42;99871.66;;;12.91;100.00
46303;BME280;32029;51.358;5.628;2023-04-01T15:53:22;99877.22;;;12.84;100.00
46303;BME280;32029;51.358;5.628;2023-04-01T15:58:46;99878.56;;;12.75;100.00
46303;BME280;32029;51.358;5.628;2023-04-01T16:10:17;99901.53;;;12.62;100.00
46303;BME280;32029;51.358;5.628;2023-04-01T16:16:10;99881.66;;;12.60;100.00
46303;BME280;32029;51.358;5.628;2023-04-01T16:24:37;99897.38;;;12.53;100.00
46303;BME280;32029;51.358;5.628;2023-04-01T16:33:10;99903.69;;;12.60;100.00
46303;BME280;32029;51.358;5.628;2023-04-01T16:35:57;99878.44;;;12.38;100.00
46303;BME280;32029;51.358;5.628;2023-04-01T16:38:52;99910.69;;;12.56;100.00
46303;BME280;32029;51.358;5.628;2023-04-01T16:44:17;99925.34;;;12.50;100.00
46303;BME280;32029;51.358;5.628;2023-04-01T16:46:54;99921.94;;;12.48;100.00
46303;BME280;32029;51.358;5.628;2023-04-01T16:49:27;99930.44;;;12.46;100.00
46303;BME280;32029;51.358;5.628;2023-04-01T16:54:59;99934.06;;;12.40;100.00
46303;BME280;32029;51.358;5.628;2023-04-01T16:57:35;99918.72;;;12.19;100.00
46303;BME280;32029;51.358;5.628;2023-04-01T17:00:27;99944.47;;;12.32;100.00
46303;BME280;32029;51.358;5.628;2023-04-01T17:03:11;99938.16;;;12.24;100.00
46303;BME280;32029;51.358;5.628;2023-04-01T17:05:48;99948.31;;;12.24;100.00
46303;BME280;32029;51.358;5.628;2023-04-01T17:11:28;99950.66;;;12.27;100.00
46303;BME280;32029;51.358;5.628;2023-04-01T17:17:14;99953.81;;;12.24;100.00
46303;BME280;32029;51.358;5.628;2023-04-01T17:23:00;99961.50;;;12.09;100.00
46303;BME280;32029;51.358;5.628;2023-04-01T17:25:41;99964.91;;;12.11;100.00
46303;BME280;32029;51.358;5.628;2023-04-01T17:33:45;99978.41;;;12.12;100.00
46303;BME280;32029;51.358;5.628;2023-04-01T17:36:30;99983.91;;;12.12;100.00
46303;BME280;32029;51.358;5.628;2023-04-01T17:39:04;99978.41;;;12.12;100.00
46303;BME280;32029;51.358;5.628;2023-04-01T17:41:54;99975.91;;;12.11;100.00
46303;BME280;32029;51.358;5.628;2023-04-01T17:44:44;99994.50;;;12.15;100.00
46303;BME280;32029;51.358;5.628;2023-04-01T17:50:24;100005.44;;;12.29;100.00
46303;BME280;32029;51.358;5.628;2023-04-01T17:53:09;100002.50;;;12.23;100.00
46303;BME280;32029;51.358;5.628;2023-04-01T17:56:23;100013.75;;;12.15;100.00
46303;BME280;32029;51.358;5.628;2023-04-01T18:01:45;100023.66;;;12.23;100.00
46303;BME280;32029;51.358;5.628;2023-04-01T18:04:30;100026.59;;;12.28;100.00
46303;BME280;32029;51.358;5.628;2023-04-01T18:07:13;100039.25;;;12.36;100.00
46303;BME280;32029;51.358;5.628;2023-04-01T18:12:36;100023.97;;;12.46;100.00
46303;BME280;32029;51.358;5.628;2023-04-01T18:23:36;100046.69;;;12.73;100.00
46303;BME280;32029;51.358;5.628;2023-04-01T18:26:20;100068.22;;;12.90;100.00
46303;BME280;32029;51.358;5.628;2023-04-01T18:29:04;100076.88;;;12.93;100.00
46303;BME280;32029;51.358;5.628;2023-04-01T18:31:48;100086.38;;;12.97;100.00
46303;BME280;32029;51.358;5.628;2023-04-01T18:37:21;100092.28;;;13.01;100.00
46303;BME280;32029;51.358;5.628;2023-04-01T18:39:54;100102.22;;;13.02;100.00
46303;BME280;32029;51.358;5.628;2023-04-01T18:42:50;100105.00;;;13.02;100.00
46303;BME280;32029;51.358;5.628;2023-04-01T18:45:49;100112.22;;;13.03;100.00
46303;BME280;32029;51.358;5.628;2023-04-01T18:54:23;100130.16;;;13.12;100.00
46303;BME280;32029;51.358;5.628;2023-04-01T18:57:02;100138.84;;;13.09;100.00
46303;BME280;32029;51.358;5.628;2023-04-01T18:59:39;100141.78;;;13.14;100.00
46303;BME280;32029;51.358;5.628;2023-04-01T19:02:27;100149.66;;;13.11;100.00
46303;BME280;32029;51.358;5.628;2023-04-01T19:07:54;100167.28;;;13.03;100.00
46303;BME280;32029;51.358;5.628;2023-04-01T19:15:37;100183.84;;;12.90;100.00
46303;BME280;32029;51.358;5.628;2023-04-01T19:21:26;100183.00;;;12.89;100.00
46303;BME280;32029;51.358;5.628;2023-04-01T19:24:21;100177.97;;;12.80;100.00
46303;BME280;32029;51.358;5.628;2023-04-01T19:27:08;100220.06;;;12.87;100.00
46303;BME280;32029;51.358;5.628;2023-04-01T19:32:40;100218.22;;;12.81;100.00
46303;BME280;32029;51.358;5.628;2023-04-01T19:46:44;100239.16;;;12.82;100.00
46303;BME280;32029;51.358;5.628;2023-04-01T19:52:31;100255.06;;;12.80;100.00
46303;BME280;32029;51.358;5.628;2023-04-01T20:00:29;100271.16;;;12.76;100.00
46303;BME280;32029;51.358;5.628;2023-04-01T20:03:01;100277.94;;;12.73;100.00
46303;BME280;32029;51.358;5.628;2023-04-01T20:08:33;100292.53;;;12.67;100.00
46303;BME280;32029;51.358;5.628;2023-04-01T20:13:56;100296.16;;;12.61;100.00
46303;BME280;32029;51.358;5.628;2023-04-01T20:16:49;100314.38;;;12.56;100.00